Pagina principale
METAR-TAF:

METAR-TAF

Aeroporti :

Wiener Neustadt, Austria

latitudine: 47-50-36N, longitudine: 016-15-29E, altezza: 272 m

Osservazione

Il bollettino è stato emesso 17 ore e 55 minuti fa, alle 18:00 UTC
Vento 5 kt da ovest/sud-ovest
Temperature
Pressione

METAR: LOAN 201800Z 25005KT 30KM FEW060CU SCT100AC

Ora: 13:55 (11:55 UTC)

Previsione

Il bollettino è stato emesso 30 minuti fa, alle 11:25 UTC
Previsione valida dal 20 alle 12 UTC al 20 alle 21 UTC
Vento 2 kt da direzioni variabili
Visibilità 10 km o più
Nubi sparse ad un'altezza di 6000 ft
Temporaneamente
dal 20 alle 12 UTC al 20 alle 17 UTC
Vento 7 kt da ovest/sud-ovest
Poco nuvoloso ad un'altezza di 6000 ft, Cumulonembo.
Nubi sparse ad un'altezza di 6500 ft

TAF: LOAN 201125Z 2012/2021 VRB02KT 9999 SCT060 TEMPO 2012/2017 25007KT FEW060CB SCT065

Osservazioni e previsioni meteorologiche di più di 4000 aeroporti (messaggi METAR e TAF).

Le stazioni disponibili sono rappresentate dai dischi gialli e rossi sulla carta.

Puntare il mouse per vedere il nome della stazione.

Clicca sopra per visualizzare le osservazioni e previsioni meteorologiche.

Per cambiare la mappa : fare clic sui pulsanti verdi con una croce nera per ingrandire, il pulsante verde con un trattino per diminuire, o sulla freccia verde per le mappe adiacenti.


METAR-TAF: